Rejestracja

Wszystkie dane podawane są w czasie UTC za wyjątkiem miejsc gdzie jest jednoznacznie podane, że jest inaczej. Dane podawane w serwisie mają charakter informacyjny!!!
Informacje w sprawie dostępu do serwisu pod numerem tel. +48 261-828-138
Informacja dla żołnierzy i pracowników wojska: Prosimy o niezwłoczną zmianę adresu e-mail w profilu użytkownika na pocztę w domenie @ron.mil.pl

Aktualna Pogoda
 
Pogoda w Polsce
7°C Szczecin 8°C Suwałki 9°C Warszawa 8°C Poznan
9°C Opole 9°C Kraków 7°C Rzeszów
Więcej miast w Polsce

Pogoda w Europie
8°C Berlin 11°C Paryz 9°C Bruksela 7°C Oslo
8°C Praga 5°C Zagrzeb
Więcej miast w Europie

Metary wojskowe test
METAR EPBC 181400Z 26010KT 9999 BKN040 09/M01 Q1012=
METAR EPCE 181400Z 22011KT 9999 SCT026 BKN057 05/02 Q1004 RMK 046 081 6/4=
METAR EPDA 181400Z 24013G29KT 210V300 9000 SHRA BKN018CB 05/03 Q1004 RMK 048 088 6/6=
METAR EPDE 181400Z 24008KT 9999 BKN040 BKN080 06/03 Q1013 RMK 061 079 6/5=
METAR EPIR 181400Z 20020G34KT 9999 BKN040 BKN060 08/M02 Q1010 RMK 076 052 7/5=
METAR EPKS 181400Z 23014G26KT 190V260 9999 BKN040 08/M02 Q1011 RMK 076 052 7/7=
METAR EPLK 181400Z 27015KT 9999 SCT050 BKN200 08/M03 Q1012 RMK 078 046 7/4=
METAR EPLY 181400Z 26014KT 9999 SCT040 BKN090 BKN200 08/M01 Q1013 RMK 081 054 6/4=
METAR EPMB 181400Z 23020G30KT 9999 BKN050 07/00 Q1007 RMK 070 063 7/7=
METAR EPMI 181400Z 22014G26KT 9999 OVC031 06/M00 Q1007 RMK 062 062 8/8=
METAR EPMM 181400Z 26012KT 230V290 9999 BKN033 BKN080 09/01 Q1011 RMK 087 059 6/5=
METAR EPNA 181400Z 25014G24KT 9999 BKN040 06/M00 Q1007 RMK 064 062 7/7=
SPECI EPOK 181412Z 22013G29KT 190V250 9999 -SHRA BKN039CB 07/00 Q1004 RMK 070 062 7/7=
METAR EPPR 181400Z 23012KT 9999 BKN056 08/M01 Q1006 RMK 075 055 5/5=
METAR EPPW 181400Z 24016G26KT 9999 SCT040 BKN060 08/M02 Q1011 RMK 075 052 7/4=
METAR COR EPSN 181400Z 21018G28KT 9999 BKN027 07/01 Q1006 RMK 066 068 7/7=
METAR EPTM 181400Z 26010KT 9999 BKN045 BKN200 09/M03 Q1012 RMK 089 043 7/5=


 

Prawa autorskie©2007 SSH SZ RP. Wszelkie prawa zastrzeżone.